sensor_id;sensor_type;location;lat;lon;timestamp;P1;durP1;ratioP1;P2;durP2;ratioP2
16813;SDS011;8524;57.650;11.926;2022-12-18T00:01:57;39.33;;;21.63;;
16813;SDS011;8524;57.650;11.926;2022-12-18T00:04:25;42.40;;;22.33;;
16813;SDS011;8524;57.650;11.926;2022-12-18T00:06:54;38.13;;;20.43;;
16813;SDS011;8524;57.650;11.926;2022-12-18T00:09:21;44.50;;;22.47;;
16813;SDS011;8524;57.650;11.926;2022-12-18T00:11:48;35.03;;;20.03;;
16813;SDS011;8524;57.650;11.926;2022-12-18T00:14:15;40.47;;;21.63;;
16813;SDS011;8524;57.650;11.926;2022-12-18T00:16:43;38.67;;;21.67;;
16813;SDS011;8524;57.650;11.926;2022-12-18T00:19:11;37.83;;;21.80;;
16813;SDS011;8524;57.650;11.926;2022-12-18T00:21:39;41.83;;;22.37;;
16813;SDS011;8524;57.650;11.926;2022-12-18T00:24:07;43.63;;;23.43;;
16813;SDS011;8524;57.650;11.926;2022-12-18T00:26:35;48.43;;;24.60;;
16813;SDS011;8524;57.650;11.926;2022-12-18T00:29:04;40.63;;;22.30;;
16813;SDS011;8524;57.650;11.926;2022-12-18T00:31:32;41.70;;;22.33;;
16813;SDS011;8524;57.650;11.926;2022-12-18T00:33:59;41.77;;;23.10;;
16813;SDS011;8524;57.650;11.926;2022-12-18T00:36:27;46.30;;;24.60;;
16813;SDS011;8524;57.650;11.926;2022-12-18T00:38:56;46.23;;;24.07;;
16813;SDS011;8524;57.650;11.926;2022-12-18T00:41:25;44.90;;;22.93;;
16813;SDS011;8524;57.650;11.926;2022-12-18T00:44:12;47.57;;;24.33;;
16813;SDS011;8524;57.650;11.926;2022-12-18T00:46:40;43.83;;;23.90;;
16813;SDS011;8524;57.650;11.926;2022-12-18T00:49:07;41.03;;;23.13;;
16813;SDS011;8524;57.650;11.926;2022-12-18T00:51:35;45.63;;;24.63;;
16813;SDS011;8524;57.650;11.926;2022-12-18T00:54:02;48.03;;;23.60;;
16813;SDS011;8524;57.650;11.926;2022-12-18T00:56:30;38.80;;;21.60;;
16813;SDS011;8524;57.650;11.926;2022-12-18T00:58:57;40.07;;;22.37;;
16813;SDS011;8524;57.650;11.926;2022-12-18T01:01:24;45.93;;;22.73;;
16813;SDS011;8524;57.650;11.926;2022-12-18T01:03:51;44.90;;;22.43;;
16813;SDS011;8524;57.650;11.926;2022-12-18T01:06:18;43.90;;;23.03;;
16813;SDS011;8524;57.650;11.926;2022-12-18T01:08:44;44.60;;;23.57;;
16813;SDS011;8524;57.650;11.926;2022-12-18T01:11:12;40.10;;;22.30;;
16813;SDS011;8524;57.650;11.926;2022-12-18T01:13:42;41.37;;;23.40;;
16813;SDS011;8524;57.650;11.926;2022-12-18T01:16:10;40.77;;;23.03;;
16813;SDS011;8524;57.650;11.926;2022-12-18T01:18:38;48.07;;;24.27;;
16813;SDS011;8524;57.650;11.926;2022-12-18T01:21:05;41.10;;;23.73;;
16813;SDS011;8524;57.650;11.926;2022-12-18T01:23:33;45.10;;;23.37;;
16813;SDS011;8524;57.650;11.926;2022-12-18T01:26:03;41.13;;;22.83;;
16813;SDS011;8524;57.650;11.926;2022-12-18T01:28:31;40.07;;;22.60;;
16813;SDS011;8524;57.650;11.926;2022-12-18T01:31:09;42.17;;;21.80;;
16813;SDS011;8524;57.650;11.926;2022-12-18T01:33:41;40.03;;;23.00;;
16813;SDS011;8524;57.650;11.926;2022-12-18T01:36:13;41.77;;;21.10;;
16813;SDS011;8524;57.650;11.926;2022-12-18T01:38:41;41.40;;;22.07;;
16813;SDS011;8524;57.650;11.926;2022-12-18T01:41:08;39.97;;;21.00;;
16813;SDS011;8524;57.650;11.926;2022-12-18T01:43:46;44.67;;;22.10;;
16813;SDS011;8524;57.650;11.926;2022-12-18T01:46:16;45.33;;;22.63;;
16813;SDS011;8524;57.650;11.926;2022-12-18T01:48:45;41.13;;;21.47;;
16813;SDS011;8524;57.650;11.926;2022-12-18T01:51:15;40.97;;;21.03;;
16813;SDS011;8524;57.650;11.926;2022-12-18T01:53:42;36.50;;;18.37;;
16813;SDS011;8524;57.650;11.926;2022-12-18T01:56:12;35.87;;;19.27;;
16813;SDS011;8524;57.650;11.926;2022-12-18T01:58:43;31.10;;;18.07;;
16813;SDS011;8524;57.650;11.926;2022-12-18T02:01:18;35.83;;;18.33;;
16813;SDS011;8524;57.650;11.926;2022-12-18T02:03:45;41.33;;;20.50;;
16813;SDS011;8524;57.650;11.926;2022-12-18T02:06:13;37.30;;;19.17;;
16813;SDS011;8524;57.650;11.926;2022-12-18T02:08:45;44.17;;;21.10;;
16813;SDS011;8524;57.650;11.926;2022-12-18T02:11:24;39.67;;;19.77;;
16813;SDS011;8524;57.650;11.926;2022-12-18T02:14:02;43.83;;;20.73;;
16813;SDS011;8524;57.650;11.926;2022-12-18T02:16:40;39.97;;;19.97;;
16813;SDS011;8524;57.650;11.926;2022-12-18T02:19:14;42.30;;;19.33;;
16813;SDS011;8524;57.650;11.926;2022-12-18T02:21:54;31.33;;;16.30;;
16813;SDS011;8524;57.650;11.926;2022-12-18T02:24:33;35.53;;;17.20;;
16813;SDS011;8524;57.650;11.926;2022-12-18T02:27:09;29.07;;;16.13;;
16813;SDS011;8524;57.650;11.926;2022-12-18T02:29:38;31.63;;;15.07;;
16813;SDS011;8524;57.650;11.926;2022-12-18T02:32:11;34.83;;;16.03;;
16813;SDS011;8524;57.650;11.926;2022-12-18T02:34:42;36.00;;;18.27;;
16813;SDS011;8524;57.650;11.926;2022-12-18T02:37:11;37.47;;;17.20;;
16813;SDS011;8524;57.650;11.926;2022-12-18T02:39:42;31.60;;;16.27;;
16813;SDS011;8524;57.650;11.926;2022-12-18T02:42:12;27.97;;;14.67;;
16813;SDS011;8524;57.650;11.926;2022-12-18T02:44:43;25.40;;;14.13;;
16813;SDS011;8524;57.650;11.926;2022-12-18T02:47:11;31.40;;;14.53;;
16813;SDS011;8524;57.650;11.926;2022-12-18T02:49:41;30.77;;;13.83;;
16813;SDS011;8524;57.650;11.926;2022-12-18T02:52:17;26.43;;;13.53;;
16813;SDS011;8524;57.650;11.926;2022-12-18T02:54:54;31.30;;;14.63;;
16813;SDS011;8524;57.650;11.926;2022-12-18T02:57:31;25.77;;;13.27;;
16813;SDS011;8524;57.650;11.926;2022-12-18T03:00:04;29.77;;;14.07;;
16813;SDS011;8524;57.650;11.926;2022-12-18T03:02:35;28.17;;;13.67;;
16813;SDS011;8524;57.650;11.926;2022-12-18T03:05:12;28.67;;;15.00;;
16813;SDS011;8524;57.650;11.926;2022-12-18T03:07:43;29.87;;;15.63;;
16813;SDS011;8524;57.650;11.926;2022-12-18T03:10:16;27.33;;;14.20;;
16813;SDS011;8524;57.650;11.926;2022-12-18T03:12:49;28.57;;;13.73;;
16813;SDS011;8524;57.650;11.926;2022-12-18T03:15:21;30.00;;;14.57;;
16813;SDS011;8524;57.650;11.926;2022-12-18T03:17:52;28.90;;;14.73;;
16813;SDS011;8524;57.650;11.926;2022-12-18T03:20:23;30.03;;;14.50;;
16813;SDS011;8524;57.650;11.926;2022-12-18T03:22:56;28.53;;;14.07;;
16813;SDS011;8524;57.650;11.926;2022-12-18T03:25:27;27.03;;;14.10;;
16813;SDS011;8524;57.650;11.926;2022-12-18T03:27:58;27.10;;;14.37;;
16813;SDS011;8524;57.650;11.926;2022-12-18T03:30:29;27.20;;;15.70;;
16813;SDS011;8524;57.650;11.926;2022-12-18T03:33:00;27.80;;;15.33;;
16813;SDS011;8524;57.650;11.926;2022-12-18T03:35:31;30.33;;;16.13;;
16813;SDS011;8524;57.650;11.926;2022-12-18T03:38:02;31.23;;;16.23;;
16813;SDS011;8524;57.650;11.926;2022-12-18T03:40:31;26.67;;;15.17;;
16813;SDS011;8524;57.650;11.926;2022-12-18T03:43:06;34.07;;;15.90;;
16813;SDS011;8524;57.650;11.926;2022-12-18T03:45:37;28.93;;;14.27;;
16813;SDS011;8524;57.650;11.926;2022-12-18T03:48:18;27.33;;;15.03;;
16813;SDS011;8524;57.650;11.926;2022-12-18T03:50:53;30.75;;;18.10;;
16813;SDS011;8524;57.650;11.926;2022-12-18T03:53:25;34.17;;;16.07;;
16813;SDS011;8524;57.650;11.926;2022-12-18T03:55:59;32.13;;;16.57;;
16813;SDS011;8524;57.650;11.926;2022-12-18T03:58:29;32.83;;;16.53;;
16813;SDS011;8524;57.650;11.926;2022-12-18T04:01:00;35.80;;;15.73;;
16813;SDS011;8524;57.650;11.926;2022-12-18T04:03:33;31.30;;;14.90;;
16813;SDS011;8524;57.650;11.926;2022-12-18T04:06:02;30.63;;;15.83;;
16813;SDS011;8524;57.650;11.926;2022-12-18T04:08:31;30.30;;;15.30;;
16813;SDS011;8524;57.650;11.926;2022-12-18T04:11:00;30.70;;;16.03;;
16813;SDS011;8524;57.650;11.926;2022-12-18T04:13:28;28.43;;;14.67;;
16813;SDS011;8524;57.650;11.926;2022-12-18T04:15:59;28.07;;;14.67;;
16813;SDS011;8524;57.650;11.926;2022-12-18T04:18:26;32.73;;;14.83;;
16813;SDS011;8524;57.650;11.926;2022-12-18T04:20:53;30.20;;;14.47;;
16813;SDS011;8524;57.650;11.926;2022-12-18T04:23:21;29.43;;;14.13;;
16813;SDS011;8524;57.650;11.926;2022-12-18T04:25:48;27.73;;;14.67;;
16813;SDS011;8524;57.650;11.926;2022-12-18T04:28:15;21.27;;;12.40;;
16813;SDS011;8524;57.650;11.926;2022-12-18T04:30:43;28.93;;;14.80;;
16813;SDS011;8524;57.650;11.926;2022-12-18T04:33:10;32.20;;;14.10;;
16813;SDS011;8524;57.650;11.926;2022-12-18T04:35:38;28.37;;;13.20;;
16813;SDS011;8524;57.650;11.926;2022-12-18T04:38:05;22.10;;;12.10;;
16813;SDS011;8524;57.650;11.926;2022-12-18T04:40:34;24.43;;;13.03;;
16813;SDS011;8524;57.650;11.926;2022-12-18T04:43:01;26.93;;;12.53;;
16813;SDS011;8524;57.650;11.926;2022-12-18T04:45:29;23.20;;;12.37;;
16813;SDS011;8524;57.650;11.926;2022-12-18T04:47:58;24.53;;;12.07;;
16813;SDS011;8524;57.650;11.926;2022-12-18T04:50:25;21.93;;;10.80;;
16813;SDS011;8524;57.650;11.926;2022-12-18T04:52:52;21.43;;;10.70;;
16813;SDS011;8524;57.650;11.926;2022-12-18T04:55:19;20.73;;;10.70;;
16813;SDS011;8524;57.650;11.926;2022-12-18T04:57:46;21.80;;;10.33;;
16813;SDS011;8524;57.650;11.926;2022-12-18T05:00:13;16.57;;;9.20;;
16813;SDS011;8524;57.650;11.926;2022-12-18T05:02:41;21.73;;;10.07;;
16813;SDS011;8524;57.650;11.926;2022-12-18T05:05:09;21.10;;;10.07;;
16813;SDS011;8524;57.650;11.926;2022-12-18T05:07:36;19.33;;;9.77;;
16813;SDS011;8524;57.650;11.926;2022-12-18T05:10:03;18.17;;;8.97;;
16813;SDS011;8524;57.650;11.926;2022-12-18T05:12:31;19.33;;;8.47;;
16813;SDS011;8524;57.650;11.926;2022-12-18T05:14:58;17.20;;;9.33;;
16813;SDS011;8524;57.650;11.926;2022-12-18T05:17:28;16.87;;;8.73;;
16813;SDS011;8524;57.650;11.926;2022-12-18T05:19:54;19.10;;;8.43;;
16813;SDS011;8524;57.650;11.926;2022-12-18T05:22:23;16.67;;;7.97;;
16813;SDS011;8524;57.650;11.926;2022-12-18T05:24:50;16.70;;;8.13;;
16813;SDS011;8524;57.650;11.926;2022-12-18T05:27:17;18.07;;;8.57;;
16813;SDS011;8524;57.650;11.926;2022-12-18T05:29:45;14.63;;;7.03;;
16813;SDS011;8524;57.650;11.926;2022-12-18T05:32:12;13.17;;;6.13;;
16813;SDS011;8524;57.650;11.926;2022-12-18T05:34:39;14.57;;;7.13;;
16813;SDS011;8524;57.650;11.926;2022-12-18T05:37:06;12.87;;;5.77;;
16813;SDS011;8524;57.650;11.926;2022-12-18T05:39:34;11.30;;;6.17;;
16813;SDS011;8524;57.650;11.926;2022-12-18T05:42:01;13.30;;;5.87;;
16813;SDS011;8524;57.650;11.926;2022-12-18T05:44:28;14.23;;;6.70;;
16813;SDS011;8524;57.650;11.926;2022-12-18T05:46:55;14.23;;;6.40;;
16813;SDS011;8524;57.650;11.926;2022-12-18T05:49:22;10.73;;;5.80;;
16813;SDS011;8524;57.650;11.926;2022-12-18T05:51:49;12.07;;;6.60;;
16813;SDS011;8524;57.650;11.926;2022-12-18T05:54:16;12.33;;;5.60;;
16813;SDS011;8524;57.650;11.926;2022-12-18T05:56:44;10.20;;;6.07;;
16813;SDS011;8524;57.650;11.926;2022-12-18T05:59:11;13.57;;;6.30;;
16813;SDS011;8524;57.650;11.926;2022-12-18T06:01:37;13.63;;;6.10;;
16813;SDS011;8524;57.650;11.926;2022-12-18T06:04:04;11.93;;;6.77;;
16813;SDS011;8524;57.650;11.926;2022-12-18T06:06:31;11.77;;;6.83;;
16813;SDS011;8524;57.650;11.926;2022-12-18T06:08:58;12.10;;;6.33;;
16813;SDS011;8524;57.650;11.926;2022-12-18T06:11:26;10.87;;;5.57;;
16813;SDS011;8524;57.650;11.926;2022-12-18T06:13:55;16.07;;;6.10;;
16813;SDS011;8524;57.650;11.926;2022-12-18T06:16:22;15.63;;;6.27;;
16813;SDS011;8524;57.650;11.926;2022-12-18T06:18:49;11.33;;;5.57;;
16813;SDS011;8524;57.650;11.926;2022-12-18T06:21:16;13.30;;;6.47;;
16813;SDS011;8524;57.650;11.926;2022-12-18T06:23:43;10.90;;;5.50;;
16813;SDS011;8524;57.650;11.926;2022-12-18T06:26:10;10.33;;;5.83;;
16813;SDS011;8524;57.650;11.926;2022-12-18T06:28:38;12.33;;;6.00;;
16813;SDS011;8524;57.650;11.926;2022-12-18T06:31:07;11.20;;;5.40;;
16813;SDS011;8524;57.650;11.926;2022-12-18T06:33:34;12.90;;;5.93;;
16813;SDS011;8524;57.650;11.926;2022-12-18T06:36:02;10.00;;;4.93;;
16813;SDS011;8524;57.650;11.926;2022-12-18T06:38:31;11.07;;;5.47;;
16813;SDS011;8524;57.650;11.926;2022-12-18T06:40:58;11.37;;;4.73;;
16813;SDS011;8524;57.650;11.926;2022-12-18T06:43:25;14.00;;;6.17;;
16813;SDS011;8524;57.650;11.926;2022-12-18T06:45:57;10.93;;;5.47;;
16813;SDS011;8524;57.650;11.926;2022-12-18T06:48:26;13.77;;;5.53;;
16813;SDS011;8524;57.650;11.926;2022-12-18T06:50:53;11.03;;;5.00;;
16813;SDS011;8524;57.650;11.926;2022-12-18T06:53:20;10.23;;;5.27;;
16813;SDS011;8524;57.650;11.926;2022-12-18T06:55:47;13.10;;;5.07;;
16813;SDS011;8524;57.650;11.926;2022-12-18T06:58:14;9.90;;;5.17;;
16813;SDS011;8524;57.650;11.926;2022-12-18T07:00:41;11.27;;;5.27;;
16813;SDS011;8524;57.650;11.926;2022-12-18T07:03:08;14.17;;;5.40;;
16813;SDS011;8524;57.650;11.926;2022-12-18T07:05:40;12.43;;;5.30;;
16813;SDS011;8524;57.650;11.926;2022-12-18T07:08:07;11.47;;;5.03;;
16813;SDS011;8524;57.650;11.926;2022-12-18T07:10:39;9.30;;;4.77;;
16813;SDS011;8524;57.650;11.926;2022-12-18T07:13:07;11.27;;;4.50;;
16813;SDS011;8524;57.650;11.926;2022-12-18T07:15:34;12.87;;;5.37;;
16813;SDS011;8524;57.650;11.926;2022-12-18T07:18:01;11.37;;;5.07;;
16813;SDS011;8524;57.650;11.926;2022-12-18T07:20:28;11.90;;;4.40;;
16813;SDS011;8524;57.650;11.926;2022-12-18T07:22:56;9.13;;;4.17;;
16813;SDS011;8524;57.650;11.926;2022-12-18T07:25:23;11.37;;;4.50;;
16813;SDS011;8524;57.650;11.926;2022-12-18T07:27:50;9.23;;;4.80;;
16813;SDS011;8524;57.650;11.926;2022-12-18T07:30:17;10.40;;;4.50;;
16813;SDS011;8524;57.650;11.926;2022-12-18T07:32:44;13.03;;;4.93;;
16813;SDS011;8524;57.650;11.926;2022-12-18T07:35:11;12.90;;;4.60;;
16813;SDS011;8524;57.650;11.926;2022-12-18T07:37:37;11.27;;;4.60;;
16813;SDS011;8524;57.650;11.926;2022-12-18T07:40:07;10.80;;;4.43;;
16813;SDS011;8524;57.650;11.926;2022-12-18T07:42:34;8.77;;;4.37;;
16813;SDS011;8524;57.650;11.926;2022-12-18T07:45:02;11.53;;;4.30;;
16813;SDS011;8524;57.650;11.926;2022-12-18T07:47:29;10.63;;;4.27;;
16813;SDS011;8524;57.650;11.926;2022-12-18T07:49:56;8.17;;;4.30;;
16813;SDS011;8524;57.650;11.926;2022-12-18T07:52:23;12.87;;;4.50;;
16813;SDS011;8524;57.650;11.926;2022-12-18T07:54:50;14.83;;;4.43;;
16813;SDS011;8524;57.650;11.926;2022-12-18T07:57:18;15.23;;;4.80;;
16813;SDS011;8524;57.650;11.926;2022-12-18T07:59:45;10.10;;;4.63;;
16813;SDS011;8524;57.650;11.926;2022-12-18T08:02:12;12.17;;;4.53;;
16813;SDS011;8524;57.650;11.926;2022-12-18T08:04:39;10.30;;;4.63;;
16813;SDS011;8524;57.650;11.926;2022-12-18T08:07:06;11.90;;;4.53;;
16813;SDS011;8524;57.650;11.926;2022-12-18T08:09:33;11.57;;;4.70;;
16813;SDS011;8524;57.650;11.926;2022-12-18T08:12:00;13.30;;;4.83;;
16813;SDS011;8524;57.650;11.926;2022-12-18T08:14:28;9.30;;;4.23;;
16813;SDS011;8524;57.650;11.926;2022-12-18T08:16:55;16.00;;;5.27;;
16813;SDS011;8524;57.650;11.926;2022-12-18T08:19:22;14.27;;;5.10;;
16813;SDS011;8524;57.650;11.926;2022-12-18T08:21:49;12.20;;;5.87;;
16813;SDS011;8524;57.650;11.926;2022-12-18T08:24:16;11.67;;;4.73;;
16813;SDS011;8524;57.650;11.926;2022-12-18T08:26:43;12.43;;;5.27;;
16813;SDS011;8524;57.650;11.926;2022-12-18T08:29:10;12.60;;;5.30;;
16813;SDS011;8524;57.650;11.926;2022-12-18T08:31:38;12.53;;;5.30;;
16813;SDS011;8524;57.650;11.926;2022-12-18T08:34:05;13.87;;;5.50;;
16813;SDS011;8524;57.650;11.926;2022-12-18T08:36:32;8.77;;;4.83;;
16813;SDS011;8524;57.650;11.926;2022-12-18T08:38:59;11.73;;;5.53;;
16813;SDS011;8524;57.650;11.926;2022-12-18T08:41:26;14.67;;;6.37;;
16813;SDS011;8524;57.650;11.926;2022-12-18T08:43:53;12.63;;;7.23;;
16813;SDS011;8524;57.650;11.926;2022-12-18T08:46:41;13.23;;;6.27;;
16813;SDS011;8524;57.650;11.926;2022-12-18T08:49:10;17.90;;;6.87;;
16813;SDS011;8524;57.650;11.926;2022-12-18T08:51:37;14.60;;;6.57;;
16813;SDS011;8524;57.650;11.926;2022-12-18T08:54:05;13.80;;;6.40;;
16813;SDS011;8524;57.650;11.926;2022-12-18T08:56:32;14.10;;;6.40;;
16813;SDS011;8524;57.650;11.926;2022-12-18T08:58:59;12.80;;;6.10;;
16813;SDS011;8524;57.650;11.926;2022-12-18T09:01:26;13.60;;;6.03;;
16813;SDS011;8524;57.650;11.926;2022-12-18T09:03:54;14.73;;;6.33;;
16813;SDS011;8524;57.650;11.926;2022-12-18T09:06:22;14.47;;;6.27;;
16813;SDS011;8524;57.650;11.926;2022-12-18T09:08:49;13.20;;;6.30;;
16813;SDS011;8524;57.650;11.926;2022-12-18T09:11:19;13.13;;;6.93;;
16813;SDS011;8524;57.650;11.926;2022-12-18T09:13:47;12.60;;;6.10;;
16813;SDS011;8524;57.650;11.926;2022-12-18T09:16:14;14.43;;;7.10;;
16813;SDS011;8524;57.650;11.926;2022-12-18T09:18:42;15.67;;;7.60;;
16813;SDS011;8524;57.650;11.926;2022-12-18T09:21:11;18.83;;;7.10;;
16813;SDS011;8524;57.650;11.926;2022-12-18T09:23:39;14.53;;;6.40;;
16813;SDS011;8524;57.650;11.926;2022-12-18T09:26:07;13.33;;;6.00;;
16813;SDS011;8524;57.650;11.926;2022-12-18T09:28:34;11.30;;;6.00;;
16813;SDS011;8524;57.650;11.926;2022-12-18T09:31:04;14.83;;;6.53;;
16813;SDS011;8524;57.650;11.926;2022-12-18T09:33:32;11.23;;;6.40;;
16813;SDS011;8524;57.650;11.926;2022-12-18T09:36:00;12.40;;;5.70;;
16813;SDS011;8524;57.650;11.926;2022-12-18T09:38:30;10.70;;;5.37;;
16813;SDS011;8524;57.650;11.926;2022-12-18T09:40:58;13.83;;;6.17;;
16813;SDS011;8524;57.650;11.926;2022-12-18T09:43:30;15.77;;;6.30;;
16813;SDS011;8524;57.650;11.926;2022-12-18T09:46:05;10.63;;;5.27;;
16813;SDS011;8524;57.650;11.926;2022-12-18T09:48:35;13.37;;;5.63;;
16813;SDS011;8524;57.650;11.926;2022-12-18T09:51:05;14.60;;;5.13;;
16813;SDS011;8524;57.650;11.926;2022-12-18T09:53:41;9.30;;;4.97;;
16813;SDS011;8524;57.650;11.926;2022-12-18T09:56:11;12.03;;;5.43;;
16813;SDS011;8524;57.650;11.926;2022-12-18T09:58:44;13.50;;;5.70;;
16813;SDS011;8524;57.650;11.926;2022-12-18T10:01:18;10.77;;;5.10;;
16813;SDS011;8524;57.650;11.926;2022-12-18T10:03:48;11.57;;;5.50;;
16813;SDS011;8524;57.650;11.926;2022-12-18T10:06:18;11.50;;;5.17;;
16813;SDS011;8524;57.650;11.926;2022-12-18T10:08:54;11.77;;;4.90;;
16813;SDS011;8524;57.650;11.926;2022-12-18T10:11:28;10.40;;;4.27;;
16813;SDS011;8524;57.650;11.926;2022-12-18T10:14:06;8.30;;;4.23;;
16813;SDS011;8524;57.650;11.926;2022-12-18T10:16:40;12.43;;;4.97;;
16813;SDS011;8524;57.650;11.926;2022-12-18T10:19:18;13.35;;;6.00;;
16813;SDS011;8524;57.650;11.926;2022-12-18T10:21:56;12.60;;;5.30;;
16813;SDS011;8524;57.650;11.926;2022-12-18T10:24:30;7.33;;;4.40;;
16813;SDS011;8524;57.650;11.926;2022-12-18T10:27:09;11.03;;;4.87;;
16813;SDS011;8524;57.650;11.926;2022-12-18T10:29:40;14.60;;;5.00;;
16813;SDS011;8524;57.650;11.926;2022-12-18T10:32:09;8.57;;;4.07;;
16813;SDS011;8524;57.650;11.926;2022-12-18T10:34:44;8.17;;;4.17;;
16813;SDS011;8524;57.650;11.926;2022-12-18T10:37:14;11.03;;;5.13;;
16813;SDS011;8524;57.650;11.926;2022-12-18T10:39:45;9.03;;;3.87;;
16813;SDS011;8524;57.650;11.926;2022-12-18T10:42:16;9.00;;;4.50;;
16813;SDS011;8524;57.650;11.926;2022-12-18T10:44:44;9.13;;;4.67;;
16813;SDS011;8524;57.650;11.926;2022-12-18T10:47:12;8.43;;;4.10;;
16813;SDS011;8524;57.650;11.926;2022-12-18T10:49:42;9.33;;;4.70;;
16813;SDS011;8524;57.650;11.926;2022-12-18T10:52:17;10.07;;;4.33;;
16813;SDS011;8524;57.650;11.926;2022-12-18T10:54:48;7.10;;;3.70;;
16813;SDS011;8524;57.650;11.926;2022-12-18T10:57:27;9.67;;;3.97;;
16813;SDS011;8524;57.650;11.926;2022-12-18T10:59:58;9.47;;;4.47;;
16813;SDS011;8524;57.650;11.926;2022-12-18T11:02:40;9.43;;;4.20;;
16813;SDS011;8524;57.650;11.926;2022-12-18T11:07:50;9.27;;;5.27;;
16813;SDS011;8524;57.650;11.926;2022-12-18T11:10:20;11.27;;;4.50;;
16813;SDS011;8524;57.650;11.926;2022-12-18T11:12:52;12.07;;;5.57;;
16813;SDS011;8524;57.650;11.926;2022-12-18T11:15:20;10.43;;;5.00;;
16813;SDS011;8524;57.650;11.926;2022-12-18T11:17:50;8.17;;;4.20;;
16813;SDS011;8524;57.650;11.926;2022-12-18T11:20:20;9.77;;;4.60;;
16813;SDS011;8524;57.650;11.926;2022-12-18T11:22:55;11.07;;;4.43;;
16813;SDS011;8524;57.650;11.926;2022-12-18T11:25:24;15.37;;;5.33;;
16813;SDS011;8524;57.650;11.926;2022-12-18T11:27:52;12.73;;;4.73;;
16813;SDS011;8524;57.650;11.926;2022-12-18T11:30:22;12.07;;;4.90;;
16813;SDS011;8524;57.650;11.926;2022-12-18T11:32:50;12.87;;;4.97;;
16813;SDS011;8524;57.650;11.926;2022-12-18T11:35:24;14.23;;;4.93;;
16813;SDS011;8524;57.650;11.926;2022-12-18T11:38:02;10.70;;;4.50;;
16813;SDS011;8524;57.650;11.926;2022-12-18T11:40:38;14.07;;;5.00;;
16813;SDS011;8524;57.650;11.926;2022-12-18T11:43:09;12.77;;;5.00;;
16813;SDS011;8524;57.650;11.926;2022-12-18T11:45:40;13.07;;;5.23;;
16813;SDS011;8524;57.650;11.926;2022-12-18T11:48:14;12.87;;;5.40;;
16813;SDS011;8524;57.650;11.926;2022-12-18T11:50:46;9.87;;;5.13;;
16813;SDS011;8524;57.650;11.926;2022-12-18T11:53:16;10.37;;;5.07;;
16813;SDS011;8524;57.650;11.926;2022-12-18T11:55:49;12.33;;;5.33;;
16813;SDS011;8524;57.650;11.926;2022-12-18T11:58:26;10.80;;;4.60;;
16813;SDS011;8524;57.650;11.926;2022-12-18T12:01:15;10.57;;;4.97;;
16813;SDS011;8524;57.650;11.926;2022-12-18T12:04:06;12.57;;;5.50;;
16813;SDS011;8524;57.650;11.926;2022-12-18T12:06:56;10.80;;;5.23;;
16813;SDS011;8524;57.650;11.926;2022-12-18T12:09:32;16.80;;;5.63;;
16813;SDS011;8524;57.650;11.926;2022-12-18T12:12:12;10.10;;;5.60;;
16813;SDS011;8524;57.650;11.926;2022-12-18T12:14:52;12.40;;;5.20;;
16813;SDS011;8524;57.650;11.926;2022-12-18T12:17:29;12.57;;;5.33;;
16813;SDS011;8524;57.650;11.926;2022-12-18T12:20:06;10.67;;;5.23;;
16813;SDS011;8524;57.650;11.926;2022-12-18T12:22:41;8.50;;;4.43;;
16813;SDS011;8524;57.650;11.926;2022-12-18T12:25:19;9.83;;;4.70;;
16813;SDS011;8524;57.650;11.926;2022-12-18T12:27:58;11.00;;;4.80;;
16813;SDS011;8524;57.650;11.926;2022-12-18T12:30:35;11.37;;;5.17;;
16813;SDS011;8524;57.650;11.926;2022-12-18T12:33:13;10.00;;;4.37;;
16813;SDS011;8524;57.650;11.926;2022-12-18T12:35:51;14.47;;;5.43;;
16813;SDS011;8524;57.650;11.926;2022-12-18T12:38:26;9.47;;;4.77;;
16813;SDS011;8524;57.650;11.926;2022-12-18T12:40:58;11.20;;;4.20;;
16813;SDS011;8524;57.650;11.926;2022-12-18T12:43:32;7.60;;;4.03;;
16813;SDS011;8524;57.650;11.926;2022-12-18T12:46:04;6.80;;;4.23;;
16813;SDS011;8524;57.650;11.926;2022-12-18T12:48:36;7.40;;;4.23;;
16813;SDS011;8524;57.650;11.926;2022-12-18T12:51:09;9.37;;;4.30;;
16813;SDS011;8524;57.650;11.926;2022-12-18T12:53:39;13.30;;;4.87;;
16813;SDS011;8524;57.650;11.926;2022-12-18T12:56:07;13.73;;;4.53;;
16813;SDS011;8524;57.650;11.926;2022-12-18T12:58:43;7.93;;;3.43;;
16813;SDS011;8524;57.650;11.926;2022-12-18T13:01:17;5.73;;;3.50;;
16813;SDS011;8524;57.650;11.926;2022-12-18T13:03:54;9.43;;;3.63;;
16813;SDS011;8524;57.650;11.926;2022-12-18T13:06:35;9.93;;;3.73;;
16813;SDS011;8524;57.650;11.926;2022-12-18T13:09:08;10.30;;;3.30;;
16813;SDS011;8524;57.650;11.926;2022-12-18T13:11:36;8.20;;;3.83;;
16813;SDS011;8524;57.650;11.926;2022-12-18T13:14:24;6.63;;;2.70;;
16813;SDS011;8524;57.650;11.926;2022-12-18T13:19:41;8.30;;;3.10;;
16813;SDS011;8524;57.650;11.926;2022-12-18T13:22:19;7.17;;;3.23;;
16813;SDS011;8524;57.650;11.926;2022-12-18T13:24:48;6.13;;;3.03;;
16813;SDS011;8524;57.650;11.926;2022-12-18T13:36:29;6.93;;;2.90;;
16813;SDS011;8524;57.650;11.926;2022-12-18T13:39:11;6.03;;;2.67;;
16813;SDS011;8524;57.650;11.926;2022-12-18T13:41:48;8.30;;;3.37;;
16813;SDS011;8524;57.650;11.926;2022-12-18T13:44:22;10.47;;;3.53;;
16813;SDS011;8524;57.650;11.926;2022-12-18T13:46:52;7.00;;;3.33;;
16813;SDS011;8524;57.650;11.926;2022-12-18T13:49:22;6.87;;;3.47;;
16813;SDS011;8524;57.650;11.926;2022-12-18T13:51:52;9.03;;;3.53;;
16813;SDS011;8524;57.650;11.926;2022-12-18T13:54:23;10.07;;;3.33;;
16813;SDS011;8524;57.650;11.926;2022-12-18T13:56:54;9.23;;;3.73;;
16813;SDS011;8524;57.650;11.926;2022-12-18T13:59:24;9.63;;;3.80;;
16813;SDS011;8524;57.650;11.926;2022-12-18T14:01:53;8.00;;;3.27;;
16813;SDS011;8524;57.650;11.926;2022-12-18T14:04:26;7.83;;;3.50;;
16813;SDS011;8524;57.650;11.926;2022-12-18T14:06:55;6.37;;;3.20;;
16813;SDS011;8524;57.650;11.926;2022-12-18T14:09:25;7.10;;;2.93;;
16813;SDS011;8524;57.650;11.926;2022-12-18T14:11:54;8.83;;;3.80;;
16813;SDS011;8524;57.650;11.926;2022-12-18T14:14:37;10.07;;;3.53;;
16813;SDS011;8524;57.650;11.926;2022-12-18T14:17:08;8.80;;;3.13;;
16813;SDS011;8524;57.650;11.926;2022-12-18T14:19:37;11.77;;;3.50;;
16813;SDS011;8524;57.650;11.926;2022-12-18T14:22:11;12.87;;;3.90;;
16813;SDS011;8524;57.650;11.926;2022-12-18T14:24:43;6.13;;;3.43;;
16813;SDS011;8524;57.650;11.926;2022-12-18T14:27:20;6.73;;;3.70;;
16813;SDS011;8524;57.650;11.926;2022-12-18T14:29:48;6.83;;;3.50;;
16813;SDS011;8524;57.650;11.926;2022-12-18T14:32:15;10.50;;;3.67;;
16813;SDS011;8524;57.650;11.926;2022-12-18T14:34:45;8.53;;;4.40;;
16813;SDS011;8524;57.650;11.926;2022-12-18T14:37:13;9.70;;;4.70;;
16813;SDS011;8524;57.650;11.926;2022-12-18T14:39:51;11.63;;;5.07;;
16813;SDS011;8524;57.650;11.926;2022-12-18T14:42:19;11.73;;;6.33;;
16813;SDS011;8524;57.650;11.926;2022-12-18T14:44:46;16.17;;;7.07;;
16813;SDS011;8524;57.650;11.926;2022-12-18T14:47:13;18.30;;;8.30;;
16813;SDS011;8524;57.650;11.926;2022-12-18T14:49:41;15.03;;;7.60;;
16813;SDS011;8524;57.650;11.926;2022-12-18T14:52:20;18.50;;;8.90;;
16813;SDS011;8524;57.650;11.926;2022-12-18T14:54:53;20.83;;;10.13;;
16813;SDS011;8524;57.650;11.926;2022-12-18T14:57:21;21.10;;;10.23;;
16813;SDS011;8524;57.650;11.926;2022-12-18T14:59:49;18.33;;;10.10;;
16813;SDS011;8524;57.650;11.926;2022-12-18T15:02:18;20.20;;;10.20;;
16813;SDS011;8524;57.650;11.926;2022-12-18T15:04:47;21.53;;;11.53;;